Time;durP1;ratioP1;P1;durP2;ratioP2;P2;SDS_P1;SDS_P2;PMS_P1;PMS_P2;Temp;Humidity;BMP_temperature;BMP_pressure;BME280_temperature;BME280_humidity;BME280_pressure;Samples;Min_cycle;Max_cycle;Signal;HPM_P1;HPM_P2
2022/03/14 00:00:43;;;;;;;70.40;64.30;;;;;;;7.32;100.00;101497.72;1995320;71;32766;-74
2022/03/14 00:06:29;;;;;;;68.37;62.77;;;;;;;7.28;100.00;101505.67;1995086;71;33295;-75
2022/03/14 00:12:17;;;;;;;66.60;60.90;;;;;;;7.15;100.00;101507.89;1992156;71;32855;-76
2022/03/14 00:18:03;;;;;;;67.77;61.87;;;;;;;7.38;100.00;101518.01;2017036;71;33356;-71
2022/03/14 00:23:46;;;;;;;65.33;59.70;;;;;;;7.57;100.00;101519.48;1991818;71;33176;-73
2022/03/14 00:29:30;;;;;;;63.60;58.30;;;;;;;7.68;100.00;101531.85;2010253;71;32734;-74
2022/03/14 00:35:15;;;;;;;70.33;64.30;;;;;;;7.91;100.00;101538.33;1997285;71;33279;-73
2022/03/14 00:41:00;;;;;;;62.57;57.27;;;;;;;7.87;100.00;101550.44;2016689;71;32925;-73
2022/03/14 00:46:44;;;;;;;65.23;59.83;;;;;;;7.88;100.00;101563.16;2016911;71;33049;-75
2022/03/14 00:52:28;;;;;;;63.43;58.23;;;;;;;8.00;100.00;101581.90;2015243;71;33453;-72
2022/03/14 00:58:12;;;;;;;65.63;60.50;;;;;;;8.02;100.00;101599.10;2016881;71;32815;-75
2022/03/14 01:03:58;;;;;;;68.67;62.97;;;;;;;7.44;100.00;101612.39;2015081;71;33330;-73
2022/03/14 01:09:42;;;;;;;68.63;63.03;;;;;;;7.37;100.00;101618.58;2006378;71;32766;-73
2022/03/14 01:15:29;;;;;;;65.90;60.43;;;;;;;7.29;100.00;101637.23;2013517;71;33371;-75
2022/03/14 01:21:13;;;;;;;69.73;63.93;;;;;;;7.29;100.00;101638.62;2007808;71;32892;-75
2022/03/14 01:26:57;;;;;;;69.33;63.13;;;;;;;7.23;100.00;101654.78;2002779;70;32842;-72
2022/03/14 01:32:41;;;;;;;67.00;61.17;;;;;;;7.26;100.00;101661.22;2013514;71;33385;-73
2022/03/14 01:38:26;;;;;;;64.07;58.60;;;;;;;7.08;100.00;101672.95;2018646;71;32821;-75
2022/03/14 01:44:10;;;;;;;65.50;60.13;;;;;;;6.92;100.00;101689.73;2017949;71;32804;-75
2022/03/14 01:49:54;;;;;;;65.47;59.77;;;;;;;6.96;100.00;101690.93;2004357;71;33286;-75
2022/03/14 01:55:38;;;;;;;62.23;56.73;;;;;;;6.84;100.00;101708.05;2011440;71;32852;-76
2022/03/14 02:01:22;;;;;;;63.20;57.30;;;;;;;6.98;100.00;101712.77;2010207;71;33319;-76
2022/03/14 02:07:08;;;;;;;61.90;56.73;;;;;;;6.76;100.00;101727.16;2015144;71;32791;-76
2022/03/14 02:12:53;;;;;;;62.87;57.30;;;;;;;6.55;100.00;101749.82;2015327;71;33265;-76
2022/03/14 02:18:37;;;;;;;63.97;58.30;;;;;;;6.59;100.00;101760.69;1995259;71;32874;-75
2022/03/14 02:24:22;;;;;;;60.60;55.50;;;;;;;6.41;100.00;101763.55;1991759;71;32837;-73
2022/03/14 02:30:09;;;;;;;61.00;55.73;;;;;;;6.39;100.00;101772.05;2013570;71;32739;-75
2022/03/14 02:35:53;;;;;;;61.87;56.50;;;;;;;6.34;100.00;101780.72;2005718;71;32876;-74
2022/03/14 02:41:37;;;;;;;61.97;56.23;;;;;;;6.24;100.00;101792.34;2000807;71;32730;-75
2022/03/14 02:47:22;;;;;;;64.47;59.03;;;;;;;6.35;100.00;101805.33;2016894;71;32882;-75
2022/03/14 02:53:07;;;;;;;62.53;56.27;;;;;;;6.45;100.00;101824.62;2011862;71;32906;-72
2022/03/14 02:58:52;;;;;;;65.37;59.73;;;;;;;6.78;100.00;101827.72;2000265;71;32815;-77
2022/03/14 03:04:36;;;;;;;67.33;61.97;;;;;;;6.54;100.00;101847.53;2017011;71;33321;-76
2022/03/14 03:10:23;;;;;;;63.07;57.57;;;;;;;6.47;100.00;101855.04;2013229;71;32804;-77
2022/03/14 03:16:07;;;;;;;63.10;57.37;;;;;;;6.47;100.00;101862.47;2015063;71;32846;-73
2022/03/14 03:21:53;;;;;;;63.33;58.13;;;;;;;6.55;100.00;101871.80;2018636;71;32811;-74
2022/03/14 03:27:37;;;;;;;64.73;58.97;;;;;;;6.45;100.00;101878.44;2012115;71;33360;-76
2022/03/14 03:33:22;;;;;;;66.27;60.80;;;;;;;6.30;100.00;101894.86;2010060;71;32730;-75
2022/03/14 03:39:06;;;;;;;67.27;62.07;;;;;;;6.15;100.00;101901.32;2013579;71;32747;-76
2022/03/14 03:44:50;;;;;;;61.87;56.63;;;;;;;6.00;100.00;101911.87;1991875;71;32737;-76
2022/03/14 03:50:34;;;;;;;64.10;58.70;;;;;;;6.11;100.00;101924.92;2008053;71;32926;-75
2022/03/14 03:56:18;;;;;;;67.00;61.60;;;;;;;5.85;100.00;101931.53;2000236;71;32894;-73
2022/03/14 04:02:04;;;;;;;61.00;55.80;;;;;;;5.90;100.00;101940.53;2011410;71;33388;-74
2022/03/14 04:07:48;;;;;;;63.53;57.60;;;;;;;5.98;100.00;101954.02;2011332;71;32792;-75
2022/03/14 04:13:32;;;;;;;59.80;54.37;;;;;;;5.84;100.00;101959.31;2004524;71;32738;-74
2022/03/14 04:19:17;;;;;;;59.47;54.57;;;;;;;5.80;100.00;101973.25;2013603;71;32754;-76
2022/03/14 04:25:03;;;;;;;60.33;55.27;;;;;;;5.98;100.00;101982.13;2011603;71;33286;-74
2022/03/14 04:30:48;;;;;;;63.67;58.57;;;;;;;5.40;100.00;101981.84;1991717;71;32822;-75
2022/03/14 04:36:32;;;;;;;59.40;54.53;;;;;;;5.52;100.00;101995.73;2011951;71;32815;-74
2022/03/14 04:42:16;;;;;;;59.37;54.50;;;;;;;5.33;100.00;102003.63;2010152;71;32737;-76
2022/03/14 04:48:01;;;;;;;63.10;57.90;;;;;;;5.27;100.00;102005.88;2013996;71;33237;-76
2022/03/14 04:53:45;;;;;;;60.10;54.27;;;;;;;5.22;100.00;102010.68;1997145;71;32812;-72
2022/03/14 04:59:29;;;;;;;58.90;53.80;;;;;;;5.26;100.00;102018.81;2000984;71;33308;-73
2022/03/14 05:05:14;;;;;;;57.57;52.60;;;;;;;5.13;100.00;102026.34;1966819;72;32850;-74
2022/03/14 05:10:58;;;;;;;60.23;55.10;;;;;;;5.18;100.00;102032.03;2009390;71;32816;-76
2022/03/14 05:16:42;;;;;;;60.47;55.17;;;;;;;4.98;100.00;102034.88;2007822;71;33493;-72
2022/03/14 05:22:27;;;;;;;58.07;52.53;;;;;;;5.07;100.00;102052.84;1991657;70;32811;-73
2022/03/14 05:28:12;;;;;;;59.90;54.47;;;;;;;4.97;100.00;102065.69;2009426;71;32807;-75
2022/03/14 05:33:56;;;;;;;59.97;54.67;;;;;;;5.17;100.00;102072.50;2007669;71;33281;-74
2022/03/14 05:39:40;;;;;;;56.63;51.43;;;;;;;5.18;100.00;102087.13;2016656;71;32803;-74
2022/03/14 05:45:24;;;;;;;59.93;54.63;;;;;;;5.10;100.00;102091.47;2004256;70;33311;-74
2022/03/14 05:51:08;;;;;;;58.43;53.23;;;;;;;4.88;100.00;102112.95;2003983;71;32883;-74
2022/03/14 05:56:54;;;;;;;60.93;55.60;;;;;;;4.52;100.00;102120.36;1991769;71;32760;-75
2022/03/14 06:02:38;;;;;;;56.80;51.93;;;;;;;4.49;100.00;102131.25;2007747;71;32855;-76
2022/03/14 06:08:23;;;;;;;59.07;53.77;;;;;;;4.51;100.00;102144.28;2013510;71;32819;-72
2022/03/14 06:14:07;;;;;;;58.40;53.63;;;;;;;4.16;100.00;102145.56;2006560;71;32956;-75
2022/03/14 06:19:52;;;;;;;62.10;56.77;;;;;;;4.40;100.00;102153.19;2008104;71;32820;-74
2022/03/14 06:25:38;;;;;;;58.47;53.07;;;;;;;4.45;100.00;102165.75;2011402;71;32959;-74
2022/03/14 06:31:23;;;;;;;58.60;52.77;;;;;;;4.43;100.00;102177.52;2016950;71;32913;-73
2022/03/14 06:37:08;;;;;;;58.63;53.10;;;;;;;4.54;100.00;102190.62;2015353;71;33278;-72
2022/03/14 06:42:53;;;;;;;62.47;56.87;;;;;;;4.84;100.00;102202.02;2006044;71;33309;-76
2022/03/14 06:48:40;;;;;;;60.87;55.43;;;;;;;4.52;100.00;102209.27;2007793;71;32951;-76
2022/03/14 06:54:23;;;;;;;67.20;61.40;;;;;;;4.52;100.00;102209.27;2008310;71;33358;-77
2022/03/14 07:00:12;;;;;;;64.17;58.43;;;;;;;4.70;100.00;102212.75;1992091;71;33226;-77
2022/03/14 07:05:57;;;;;;;61.73;56.27;;;;;;;4.82;100.00;102243.22;1999011;70;32917;-74
2022/03/14 07:11:41;;;;;;;65.50;59.90;;;;;;;4.77;100.00;102247.13;2013563;71;33290;-73
2022/03/14 07:17:25;;;;;;;65.90;60.00;;;;;;;4.91;100.00;102257.08;2015163;71;32868;-74
2022/03/14 07:23:09;;;;;;;65.70;60.13;;;;;;;4.83;100.00;102264.19;2013078;71;32920;-78
2022/03/14 07:28:54;;;;;;;63.60;58.53;;;;;;;4.98;100.00;102266.17;1997210;71;32863;-76
2022/03/14 07:34:39;;;;;;;65.17;59.67;;;;;;;5.05;100.00;102271.13;1991709;71;32746;-75
2022/03/14 07:40:23;;;;;;;66.07;60.90;;;;;;;5.85;100.00;102277.58;2009934;71;32901;-74
2022/03/14 07:46:09;;;;;;;65.70;59.87;;;;;;;6.16;100.00;102287.83;2007853;71;32858;-76
2022/03/14 07:51:54;;;;;;;66.77;61.10;;;;;;;6.34;100.00;102299.50;2011081;70;32842;-80
2022/03/14 07:57:39;;;;;;;65.47;60.17;;;;;;;6.46;100.00;102299.09;2009879;71;33280;-80
2022/03/14 08:03:26;;;;;;;68.67;62.97;;;;;;;6.66;100.00;102310.02;2011948;71;32813;-75
2022/03/14 08:09:10;;;;;;;62.03;56.83;;;;;;;6.76;100.00;102320.05;2017064;70;33297;-78
2022/03/14 08:14:55;;;;;;;59.10;54.17;;;;;;;7.24;100.00;102322.47;2007567;71;32809;-72
2022/03/14 08:20:39;;;;;;;61.13;56.03;;;;;;;7.60;100.00;102329.13;2006070;71;32815;-71
2022/03/14 08:26:23;;;;;;;64.97;59.57;;;;;;;7.84;100.00;102329.59;2016896;71;32816;-74
2022/03/14 08:32:12;;;;;;;61.53;56.20;;;;;;;8.15;100.00;102339.63;2009609;71;33331;-69
2022/03/14 08:37:58;;;;;;;64.40;58.93;;;;;;;8.30;100.00;102331.78;2004097;71;33309;-70
2022/03/14 08:43:43;;;;;;;65.77;60.40;;;;;;;8.87;100.00;102340.53;2009226;71;32962;-70
2022/03/14 08:49:27;;;;;;;67.10;61.90;;;;;;;9.05;100.00;102351.00;1998941;71;32785;-79
2022/03/14 08:55:14;;;;;;;64.30;59.10;;;;;;;9.43;100.00;102363.56;2005705;71;32928;-73
2022/03/14 09:01:00;;;;;;;64.87;59.67;;;;;;;9.52;100.00;102375.99;2000830;71;32858;-77
2022/03/14 09:06:45;;;;;;;62.27;57.43;;;;;;;9.73;100.00;102382.31;2011470;71;33348;-74
2022/03/14 09:12:30;;;;;;;62.83;57.73;;;;;;;9.69;100.00;102394.14;2009430;71;32829;-79
2022/03/14 09:18:14;;;;;;;70.53;65.20;;;;;;;10.06;100.00;102395.54;2004060;71;32883;-79
2022/03/14 09:23:58;;;;;;;66.40;61.30;;;;;;;9.88;100.00;102398.48;2004033;71;33321;-77
2022/03/14 09:29:43;;;;;;;64.00;58.93;;;;;;;10.03;100.00;102403.83;2011825;71;33335;-69
2022/03/14 09:35:28;;;;;;;64.00;58.57;;;;;;;10.34;100.00;102408.69;1998442;71;32975;-79
2022/03/14 09:41:16;;;;;;;73.30;68.00;;;;;;;10.48;100.00;102400.38;2011950;71;32762;-76
2022/03/14 09:47:03;;;;;;;66.13;61.17;;;;;;;10.72;100.00;102404.74;2002835;71;33217;-78
2022/03/14 09:52:50;;;;;;;63.00;57.97;;;;;;;11.09;100.00;102409.31;1995252;71;32738;-72
2022/03/14 09:58:35;;;;;;;66.07;60.87;;;;;;;11.12;100.00;102413.02;2004529;71;32808;-70
2022/03/14 10:04:19;;;;;;;70.87;65.77;;;;;;;11.09;100.00;102420.44;2015383;71;33347;-78
2022/03/14 10:10:04;;;;;;;68.87;63.60;;;;;;;11.20;100.00;102425.11;2008214;71;33363;-74
2022/03/14 10:15:52;;;;;;;72.37;66.83;;;;;;;11.23;100.00;102423.75;2005609;71;32839;-74
2022/03/14 10:21:38;;;;;;;68.47;63.43;;;;;;;11.22;100.00;102442.92;2009318;71;32877;-78
2022/03/14 10:27:23;;;;;;;61.57;57.67;;;;;;;11.05;100.00;102452.63;2007884;71;32853;-74
2022/03/14 10:33:16;;;;;;;60.93;57.30;;;;;;;11.04;100.00;102448.15;1997250;71;33312;-74
2022/03/14 10:39:12;;;;;;;63.03;58.87;;;;;;;11.05;100.00;102449.84;2006345;71;33262;-74
2022/03/14 10:44:57;;;;;;;63.97;59.97;;;;;;;10.91;100.00;102456.83;2000278;71;32860;-75
2022/03/14 10:50:43;;;;;;;64.53;60.17;;;;;;;11.24;100.00;102456.05;2015061;71;33298;-77
2022/03/14 10:56:29;;;;;;;60.03;56.23;;;;;;;11.78;100.00;102451.70;1998814;71;32806;-77
2022/03/14 11:02:17;;;;;;;57.17;53.53;;;;;;;11.89;100.00;102455.50;2009440;71;32963;-71
2022/03/14 11:08:01;;;;;;;57.70;54.20;;;;;;;11.99;100.00;102451.46;1998832;71;32818;-75
2022/03/14 11:13:56;;;;;;;56.67;53.33;;;;;;;12.29;100.00;102447.72;2005922;71;32848;-77
2022/03/14 11:19:41;;;;;;;54.00;51.07;;;;;;;12.21;100.00;102457.92;2016748;71;32827;-78
2022/03/14 11:25:28;;;;;;;52.47;49.30;;;;;;;12.35;100.00;102457.84;2001070;71;33473;-75
2022/03/14 11:31:14;;;;;;;50.33;47.43;;;;;;;12.57;100.00;102457.31;2007866;70;33529;-74
2022/03/14 11:37:00;;;;;;;39.33;36.90;;;;;;;12.84;100.00;102464.31;2002473;71;32778;-71
2022/03/14 11:42:45;;;;;;;38.10;36.13;;;;;;;12.69;100.00;102462.20;2014810;71;33006;-70
2022/03/14 11:48:34;;;;;;;35.83;33.90;;;;;;;12.73;100.00;102452.21;2018477;71;32789;-76
2022/03/14 11:54:19;;;;;;;37.83;35.80;;;;;;;12.52;100.00;102461.97;2009433;71;32854;-73
2022/03/14 12:00:41;;;;;;;36.97;35.00;;;;;;;12.64;100.00;102473.28;2001159;71;33264;-74
2022/03/14 12:07:05;;;;;;;37.67;35.63;;;;;;;13.12;100.00;102471.64;2009819;71;32833;-75
2022/03/14 12:13:01;;;;;;;34.07;32.20;;;;;;;12.93;100.00;102469.72;2018758;71;32875;-75
2022/03/14 12:18:59;;;;;;;33.40;31.43;;;;;;;13.42;100.00;102469.71;2011386;71;32795;-77
2022/03/14 12:25:02;;;;;;;32.70;30.90;;;;;;;13.28;100.00;102468.45;2006536;71;33226;-74
2022/03/14 12:30:51;;;;;;;30.80;29.20;;;;;;;13.20;100.00;102457.21;2011881;71;32803;-75
2022/03/14 12:36:47;;;;;;;29.90;28.33;;;;;;;13.45;100.00;102445.44;2002059;71;32850;-70
2022/03/14 12:42:42;;;;;;;28.50;27.00;;;;;;;13.18;100.00;102450.48;1995271;71;32800;-72
2022/03/14 12:48:35;;;;;;;22.37;21.17;;;;;;;13.77;100.00;102454.66;2005645;71;32852;-74
2022/03/14 12:54:33;;;;;;;25.47;23.97;;;;;;;13.56;100.00;102463.41;2007553;71;32901;-71
2022/03/14 13:00:19;;;;;;;24.57;23.13;;;;;;;13.24;100.00;102472.32;2018799;71;33408;-76
2022/03/14 13:06:04;;;;;;;28.10;26.77;;;;;;;13.15;100.00;102457.16;2013306;71;32813;-76
2022/03/14 13:11:48;;;;;;;29.63;28.20;;;;;;;13.38;100.00;102455.45;2015153;71;33289;-75
2022/03/14 13:17:33;;;;;;;30.27;28.53;;;;;;;13.52;100.00;102450.27;2013180;71;32912;-75
2022/03/14 13:23:35;;;;;;;29.13;27.27;;;;;;;13.41;100.00;102446.53;1994939;71;32837;-76
2022/03/14 13:29:20;;;;;;;27.57;26.10;;;;;;;13.21;100.00;102449.98;1995469;71;32752;-77
2022/03/14 13:35:07;;;;;;;28.37;26.83;;;;;;;13.27;100.00;102445.83;2009625;71;33288;-75
2022/03/14 13:41:01;;;;;;;26.77;25.37;;;;;;;13.26;100.00;102442.22;2007656;71;33290;-75
2022/03/14 13:46:50;;;;;;;29.80;28.10;;;;;;;13.44;100.00;102452.12;1991353;71;32769;-74
2022/03/14 13:52:37;;;;;;;28.27;26.83;;;;;;;13.36;100.00;102449.82;1991465;71;32757;-72
2022/03/14 13:58:28;;;;;;;35.80;33.90;;;;;;;13.27;100.00;102456.98;2014887;71;32837;-75
2022/03/14 14:04:18;;;;;;;41.00;38.80;;;;;;;13.02;100.00;102468.15;1988552;70;32739;-73
2022/03/14 14:10:04;;;;;;;40.40;38.30;;;;;;;13.10;100.00;102464.92;1997295;71;32785;-77
2022/03/14 14:15:50;;;;;;;37.97;35.87;;;;;;;12.85;100.00;102459.03;2009688;71;32913;-77
2022/03/14 14:21:35;;;;;;;43.17;40.77;;;;;;;13.03;100.00;102450.86;2003835;71;32949;-75
2022/03/14 14:27:26;;;;;;;48.83;46.10;;;;;;;12.95;100.00;102454.13;2015013;71;32840;-76
2022/03/14 14:33:12;;;;;;;70.57;66.03;;;;;;;12.71;100.00;102457.19;2016890;71;32850;-75
2022/03/14 14:38:57;;;;;;;70.43;66.03;;;;;;;12.29;100.00;102461.11;2016978;71;32830;-74
2022/03/14 14:44:42;;;;;;;72.47;67.77;;;;;;;12.27;100.00;102465.27;2014031;71;33282;-74
2022/03/14 14:50:26;;;;;;;67.57;63.23;;;;;;;12.35;100.00;102465.36;2011389;71;32851;-76
2022/03/14 14:56:11;;;;;;;68.60;64.43;;;;;;;12.19;100.00;102468.50;2009781;71;32833;-77
2022/03/14 15:01:57;;;;;;;68.23;64.03;;;;;;;12.04;100.00;102465.47;2005692;71;33359;-70
2022/03/14 15:07:41;;;;;;;66.03;61.83;;;;;;;12.31;100.00;102457.53;2003898;71;34649;-76
2022/03/14 15:13:27;;;;;;;66.37;62.30;;;;;;;12.37;100.00;102459.81;1995301;71;32801;-74
2022/03/14 15:19:11;;;;;;;67.47;63.37;;;;;;;12.62;100.00;102468.50;2000997;71;32805;-73
2022/03/14 15:24:55;;;;;;;59.77;56.47;;;;;;;12.76;100.00;102476.78;2007869;71;32830;-75
2022/03/14 15:30:43;;;;;;;56.00;52.97;;;;;;;12.83;100.00;102469.63;1997132;71;32803;-74
2022/03/14 15:36:25;;;;;;;58.53;55.40;;;;;;;13.09;100.00;102463.20;2014774;71;32812;-77
2022/03/14 15:42:13;;;;;;;59.63;56.37;;;;;;;13.31;100.00;102463.72;2011097;71;32841;-72
2022/03/14 15:48:00;;;;;;;56.57;53.37;;;;;;;13.16;100.00;102458.30;1911324;73;32900;-77
2022/03/14 15:53:44;;;;;;;63.13;59.63;;;;;;;13.17;100.00;102464.73;2002302;71;33316;-72
2022/03/14 15:59:29;;;;;;;64.83;61.13;;;;;;;13.04;100.00;102476.27;2009422;71;33295;-75
2022/03/14 16:05:15;;;;;;;66.93;63.07;;;;;;;12.57;100.00;102470.41;2016679;71;32974;-71
2022/03/14 16:10:59;;;;;;;65.67;61.83;;;;;;;12.54;100.00;102473.69;2002571;71;32786;-74
2022/03/14 16:16:43;;;;;;;69.13;64.83;;;;;;;12.37;100.00;102472.90;2018437;71;32812;-78
2022/03/14 16:22:27;;;;;;;64.40;60.57;;;;;;;12.38;100.00;102471.80;1998289;71;32854;-73
2022/03/14 16:28:11;;;;;;;64.57;60.63;;;;;;;12.49;100.00;102471.70;2014932;71;33340;-74
2022/03/14 16:33:56;;;;;;;67.23;63.13;;;;;;;12.36;100.00;102467.91;2009923;71;33387;-77
2022/03/14 16:39:42;;;;;;;62.10;58.30;;;;;;;12.54;100.00;102475.08;2004083;70;32874;-77
2022/03/14 16:45:27;;;;;;;57.23;53.93;;;;;;;12.82;100.00;102474.05;1995341;71;33269;-73
2022/03/14 16:51:14;;;;;;;53.90;50.90;;;;;;;12.93;100.00;102475.30;1995153;71;32817;-71
2022/03/14 16:56:58;;;;;;;54.97;51.87;;;;;;;12.77;100.00;102479.02;2002257;71;34707;-75
2022/03/14 17:02:43;;;;;;;55.23;52.07;;;;;;;12.78;100.00;102477.37;2000760;70;32992;-75
2022/03/14 17:08:26;;;;;;;57.70;54.60;;;;;;;12.70;100.00;102482.56;2004594;71;32805;-73
2022/03/14 17:14:11;;;;;;;58.17;54.97;;;;;;;12.56;100.00;102486.28;2001028;71;33225;-81
2022/03/14 17:19:56;;;;;;;57.10;54.00;;;;;;;12.45;100.00;102490.02;2003773;71;32973;-75
2022/03/14 17:25:42;;;;;;;57.10;54.10;;;;;;;12.43;100.00;102490.00;2011099;71;32861;-76
2022/03/14 17:31:26;;;;;;;58.17;54.97;;;;;;;12.30;100.00;102492.61;1998372;71;33375;-74
2022/03/14 17:37:11;;;;;;;55.13;52.13;;;;;;;12.35;100.00;102499.66;2003939;71;32877;-75
2022/03/14 17:42:55;;;;;;;57.30;54.07;;;;;;;12.62;100.00;102504.75;2018305;71;32812;-75
2022/03/14 17:48:40;;;;;;;63.13;59.57;;;;;;;12.11;100.00;102505.13;2008706;70;33215;-78
2022/03/14 17:54:26;;;;;;;63.23;59.73;;;;;;;11.94;100.00;102507.92;2011310;71;33469;-74
2022/03/14 18:00:13;;;;;;;65.37;61.60;;;;;;;12.09;100.00;102508.73;1991564;71;32759;-74
2022/03/14 18:05:58;;;;;;;64.03;60.40;;;;;;;11.72;100.00;102524.55;2008070;71;32953;-74
2022/03/14 18:11:43;;;;;;;66.90;62.80;;;;;;;11.75;100.00;102530.17;2005565;71;32887;-74
2022/03/14 18:17:27;;;;;;;69.47;64.97;;;;;;;11.48;100.00;102531.33;1998791;71;32840;-79
2022/03/14 18:23:11;;;;;;;68.30;64.30;;;;;;;11.33;100.00;102538.01;2011533;71;32892;-81
2022/03/14 18:29:00;;;;;;;76.63;71.83;;;;;;;10.87;100.00;102546.80;2004059;71;32831;-79
2022/03/14 18:34:45;;;;;;;78.17;72.83;;;;;;;10.56;100.00;102556.98;1995554;71;32865;-80
2022/03/14 18:40:34;;;;;;;79.37;74.30;;;;;;;10.17;100.00;102561.34;1999115;71;32770;-69
2022/03/14 18:46:16;;;;;;;80.93;75.70;;;;;;;10.09;100.00;102564.45;2006016;71;32892;-72
2022/03/14 18:52:00;;;;;;;79.33;73.93;;;;;;;10.04;100.00;102573.50;2000884;71;32832;-74
2022/03/14 18:57:44;;;;;;;79.40;73.90;;;;;;;9.87;100.00;102572.50;2004559;71;33320;-69
2022/03/14 19:03:30;;;;;;;77.90;72.20;;;;;;;9.62;100.00;102571.84;2016847;71;33389;-70
2022/03/14 19:09:15;;;;;;;76.53;70.83;;;;;;;9.51;100.00;102566.55;2004089;71;33330;-73
2022/03/14 19:14:59;;;;;;;72.03;66.77;;;;;;;9.54;100.00;102573.00;2006479;71;32774;-73
2022/03/14 19:20:43;;;;;;;72.50;66.90;;;;;;;9.16;100.00;102584.97;1991629;71;33221;-73
2022/03/14 19:26:27;;;;;;;75.37;69.20;;;;;;;9.04;100.00;102591.00;2000584;71;33295;-71
2022/03/14 19:32:12;;;;;;;79.20;73.37;;;;;;;8.90;100.00;102604.17;2016920;71;32907;-69
2022/03/14 19:37:56;;;;;;;75.73;70.10;;;;;;;9.11;100.00;102611.19;2013281;71;33293;-73
2022/03/14 19:43:42;;;;;;;71.47;65.97;;;;;;;9.24;100.00;102612.94;2004109;71;33349;-74
2022/03/14 19:49:27;;;;;;;78.60;72.80;;;;;;;9.27;100.00;102613.85;2016833;70;33301;-69
2022/03/14 19:55:11;;;;;;;78.43;72.33;;;;;;;8.94;100.00;102618.44;2016681;71;32814;-69
2022/03/14 20:00:56;;;;;;;73.67;67.97;;;;;;;8.92;100.00;102622.81;2013505;71;33418;-72
2022/03/14 20:06:43;;;;;;;76.63;70.73;;;;;;;9.06;100.00;102620.73;1997165;71;32818;-70
2022/03/14 20:12:26;;;;;;;74.50;68.60;;;;;;;9.00;100.00;102628.05;2000893;71;33298;-69
2022/03/14 20:18:10;;;;;;;70.47;64.87;;;;;;;8.73;100.00;102629.98;2003860;70;32898;-72
2022/03/14 20:23:56;;;;;;;72.07;65.83;;;;;;;8.48;100.00;102637.77;2016872;71;32836;-68
2022/03/14 20:29:41;;;;;;;72.70;67.03;;;;;;;8.42;100.00;102646.16;2008174;71;32771;-68
2022/03/14 20:35:25;;;;;;;72.93;67.13;;;;;;;8.28;100.00;102648.16;2011391;71;32849;-69
2022/03/14 20:41:09;;;;;;;70.83;65.13;;;;;;;7.95;100.00;102651.73;2002429;71;32784;-68
2022/03/14 20:46:55;;;;;;;72.93;67.37;;;;;;;7.80;100.00;102667.24;1991520;71;32925;-67
2022/03/14 20:52:39;;;;;;;73.00;67.20;;;;;;;7.63;100.00;102669.69;2017007;71;33347;-67
2022/03/14 20:58:25;;;;;;;70.07;64.17;;;;;;;7.36;100.00;102667.30;1998858;71;33428;-71
2022/03/14 21:04:09;;;;;;;71.63;65.60;;;;;;;7.27;100.00;102670.28;2016755;71;33311;-66
2022/03/14 21:09:53;;;;;;;71.30;65.43;;;;;;;7.31;100.00;102674.33;2016915;70;32905;-67
2022/03/14 21:15:40;;;;;;;71.50;65.83;;;;;;;7.39;100.00;102666.31;1998894;71;33532;-72
2022/03/14 21:21:24;;;;;;;78.50;72.50;;;;;;;7.35;100.00;102672.50;1999246;71;33275;-69
2022/03/14 21:27:11;;;;;;;69.33;63.63;;;;;;;7.27;100.00;102671.66;2006160;71;32835;-68
2022/03/14 21:32:56;;;;;;;70.00;64.10;;;;;;;7.33;100.00;102674.95;2013457;71;32842;-70
2022/03/14 21:38:43;;;;;;;71.27;65.60;;;;;;;7.43;100.00;102675.86;2013853;71;33252;-68
2022/03/14 21:44:27;;;;;;;71.13;64.83;;;;;;;7.51;100.00;102676.14;2009367;70;32915;-70
2022/03/14 21:50:17;;;;;;;72.47;66.37;;;;;;;7.58;100.00;102683.86;1998626;71;32846;-72
2022/03/14 21:56:03;;;;;;;71.17;65.47;;;;;;;7.55;100.00;102679.62;2004476;70;32842;-74
2022/03/14 22:01:48;;;;;;;71.60;65.80;;;;;;;7.51;100.00;102672.84;2004387;71;32761;-68
2022/03/14 22:07:32;;;;;;;70.80;64.80;;;;;;;7.44;100.00;102674.80;1995344;71;32824;-70
2022/03/14 22:13:18;;;;;;;71.93;66.10;;;;;;;7.45;100.00;102674.24;2008292;71;32815;-74
2022/03/14 22:19:04;;;;;;;68.93;63.33;;;;;;;7.42;100.00;102676.92;1997061;71;32848;-73
2022/03/14 22:24:48;;;;;;;72.83;66.80;;;;;;;7.41;100.00;102675.75;2006110;71;32840;-69
2022/03/14 22:30:33;;;;;;;65.23;59.80;;;;;;;7.31;100.00;102672.95;2012300;71;33302;-69
2022/03/14 22:36:18;;;;;;;72.67;66.80;;;;;;;7.38;100.00;102669.29;2015108;71;32837;-69
2022/03/14 22:42:03;;;;;;;70.00;64.70;;;;;;;7.21;100.00;102662.88;2011241;71;32854;-68
2022/03/14 22:47:49;;;;;;;75.63;69.93;;;;;;;7.10;100.00;102655.25;2002470;71;32774;-68
2022/03/14 22:53:34;;;;;;;72.90;67.20;;;;;;;6.98;100.00;102658.38;1995095;70;33367;-68
2022/03/14 22:59:19;;;;;;;65.73;60.33;;;;;;;7.02;100.00;102651.88;2007833;71;32965;-69
2022/03/14 23:05:14;;;;;;;67.40;62.00;;;;;;;7.08;100.00;102636.67;1958141;71;33422;-73
2022/03/14 23:17:06;;;;;;;65.30;60.07;;;;;;;7.45;100.00;102649.36;2007315;70;32878;-74
2022/03/14 23:22:53;;;;;;;68.23;62.67;;;;;;;7.67;100.00;102637.75;1991668;71;33318;-70
2022/03/14 23:28:38;;;;;;;70.10;64.80;;;;;;;7.57;100.00;102633.23;2015192;71;32833;-70
2022/03/14 23:34:24;;;;;;;73.87;68.30;;;;;;;7.46;100.00;102636.70;2014949;71;33359;-70
2022/03/14 23:40:11;;;;;;;69.77;64.17;;;;;;;7.52;100.00;102623.92;1992088;70;32828;-70
2022/03/14 23:45:55;;;;;;;66.60;61.17;;;;;;;7.48;100.00;102608.31;2006142;71;32871;-70
2022/03/14 23:51:41;;;;;;;69.00;63.57;;;;;;;7.47;100.00;102605.23;2016772;71;32963;-70
2022/03/14 23:57:25;;;;;;;73.23;67.43;;;;;;;7.41;100.00;102605.25;2008542;70;33212;-70
